sensor_id;sensor_type;location;lat;lon;timestamp;P1;durP1;ratioP1;P2;durP2;ratioP2
43678;SDS011;29279;50.858;4.392;2022-11-24T00:01:18;28.27;;;4.50;;
43678;SDS011;29279;50.858;4.392;2022-11-24T00:03:50;26.60;;;4.63;;
43678;SDS011;29279;50.858;4.392;2022-11-24T00:06:24;23.80;;;4.28;;
43678;SDS011;29279;50.858;4.392;2022-11-24T00:08:50;26.05;;;3.90;;
43678;SDS011;29279;50.858;4.392;2022-11-24T00:11:17;27.70;;;3.97;;
43678;SDS011;29279;50.858;4.392;2022-11-24T00:13:47;18.30;;;4.18;;
43678;SDS011;29279;50.858;4.392;2022-11-24T00:16:21;23.83;;;4.95;;
43678;SDS011;29279;50.858;4.392;2022-11-24T00:18:55;24.08;;;3.95;;
43678;SDS011;29279;50.858;4.392;2022-11-24T00:21:22;36.45;;;4.90;;
43678;SDS011;29279;50.858;4.392;2022-11-24T00:23:49;26.05;;;3.75;;
43678;SDS011;29279;50.858;4.392;2022-11-24T00:26:16;30.35;;;4.80;;
43678;SDS011;29279;50.858;4.392;2022-11-24T00:28:47;37.60;;;5.07;;
43678;SDS011;29279;50.858;4.392;2022-11-24T00:31:23;32.83;;;5.07;;
43678;SDS011;29279;50.858;4.392;2022-11-24T00:33:52;25.02;;;4.63;;
43678;SDS011;29279;50.858;4.392;2022-11-24T00:36:20;30.05;;;4.35;;
43678;SDS011;29279;50.858;4.392;2022-11-24T00:38:51;29.83;;;5.53;;
43678;SDS011;29279;50.858;4.392;2022-11-24T00:41:18;37.85;;;5.00;;
43678;SDS011;29279;50.858;4.392;2022-11-24T00:43:44;36.08;;;5.57;;
43678;SDS011;29279;50.858;4.392;2022-11-24T00:46:10;30.85;;;5.20;;
43678;SDS011;29279;50.858;4.392;2022-11-24T00:48:35;30.73;;;5.07;;
43678;SDS011;29279;50.858;4.392;2022-11-24T00:51:04;33.70;;;6.70;;
43678;SDS011;29279;50.858;4.392;2022-11-24T00:53:34;34.03;;;4.82;;
43678;SDS011;29279;50.858;4.392;2022-11-24T00:56:00;30.60;;;4.78;;
43678;SDS011;29279;50.858;4.392;2022-11-24T00:58:27;37.97;;;5.53;;
43678;SDS011;29279;50.858;4.392;2022-11-24T01:00:53;35.63;;;7.38;;
43678;SDS011;29279;50.858;4.392;2022-11-24T01:03:20;39.40;;;5.57;;
43678;SDS011;29279;50.858;4.392;2022-11-24T01:05:46;29.15;;;4.60;;
43678;SDS011;29279;50.858;4.392;2022-11-24T01:08:12;30.35;;;5.53;;
43678;SDS011;29279;50.858;4.392;2022-11-24T01:10:38;31.75;;;5.43;;
43678;SDS011;29279;50.858;4.392;2022-11-24T01:13:04;40.10;;;6.40;;
43678;SDS011;29279;50.858;4.392;2022-11-24T01:15:29;35.88;;;5.57;;
43678;SDS011;29279;50.858;4.392;2022-11-24T01:17:55;38.95;;;5.93;;
43678;SDS011;29279;50.858;4.392;2022-11-24T01:20:21;32.25;;;6.35;;
43678;SDS011;29279;50.858;4.392;2022-11-24T01:22:48;30.95;;;5.60;;
43678;SDS011;29279;50.858;4.392;2022-11-24T01:25:14;34.67;;;5.03;;
43678;SDS011;29279;50.858;4.392;2022-11-24T01:27:39;34.20;;;5.90;;
43678;SDS011;29279;50.858;4.392;2022-11-24T01:30:06;33.00;;;5.57;;
43678;SDS011;29279;50.858;4.392;2022-11-24T01:32:32;42.47;;;6.28;;
43678;SDS011;29279;50.858;4.392;2022-11-24T01:35:00;40.78;;;6.05;;
43678;SDS011;29279;50.858;4.392;2022-11-24T01:37:28;38.70;;;5.40;;
43678;SDS011;29279;50.858;4.392;2022-11-24T01:39:54;36.60;;;6.53;;
43678;SDS011;29279;50.858;4.392;2022-11-24T01:42:19;34.08;;;6.55;;
43678;SDS011;29279;50.858;4.392;2022-11-24T01:44:46;44.05;;;7.03;;
43678;SDS011;29279;50.858;4.392;2022-11-24T01:50:05;39.60;;;6.43;;
43678;SDS011;29279;50.858;4.392;2022-11-24T01:52:41;35.55;;;6.18;;
43678;SDS011;29279;50.858;4.392;2022-11-24T01:55:15;37.38;;;6.82;;
43678;SDS011;29279;50.858;4.392;2022-11-24T01:57:46;27.23;;;5.28;;
43678;SDS011;29279;50.858;4.392;2022-11-24T02:00:23;37.00;;;5.68;;
43678;SDS011;29279;50.858;4.392;2022-11-24T02:02:49;40.17;;;6.50;;
43678;SDS011;29279;50.858;4.392;2022-11-24T02:11:33;41.53;;;5.50;;
43678;SDS011;29279;50.858;4.392;2022-11-24T02:14:01;36.47;;;5.13;;
43678;SDS011;29279;50.858;4.392;2022-11-24T02:16:30;48.65;;;6.88;;
43678;SDS011;29279;50.858;4.392;2022-11-24T02:18:57;35.33;;;5.60;;
43678;SDS011;29279;50.858;4.392;2022-11-24T02:21:23;34.85;;;5.78;;
43678;SDS011;29279;50.858;4.392;2022-11-24T02:28:55;36.35;;;5.72;;
43678;SDS011;29279;50.858;4.392;2022-11-24T02:31:21;37.45;;;5.30;;
43678;SDS011;29279;50.858;4.392;2022-11-24T02:33:47;35.75;;;6.03;;
43678;SDS011;29279;50.858;4.392;2022-11-24T02:36:15;30.23;;;5.63;;
43678;SDS011;29279;50.858;4.392;2022-11-24T02:38:40;37.85;;;5.63;;
43678;SDS011;29279;50.858;4.392;2022-11-24T02:41:06;32.88;;;5.75;;
43678;SDS011;29279;50.858;4.392;2022-11-24T02:43:36;35.53;;;5.78;;
43678;SDS011;29279;50.858;4.392;2022-11-24T02:46:08;36.50;;;5.88;;
43678;SDS011;29279;50.858;4.392;2022-11-24T02:48:35;34.83;;;5.95;;
43678;SDS011;29279;50.858;4.392;2022-11-24T02:51:01;45.28;;;6.45;;
43678;SDS011;29279;50.858;4.392;2022-11-24T02:53:27;28.90;;;4.22;;
43678;SDS011;29279;50.858;4.392;2022-11-24T02:55:52;34.17;;;5.63;;
43678;SDS011;29279;50.858;4.392;2022-11-24T02:58:18;47.20;;;6.57;;
43678;SDS011;29279;50.858;4.392;2022-11-24T03:00:44;41.15;;;6.40;;
43678;SDS011;29279;50.858;4.392;2022-11-24T03:03:10;50.60;;;6.00;;
43678;SDS011;29279;50.858;4.392;2022-11-24T03:05:35;38.75;;;5.95;;
43678;SDS011;29279;50.858;4.392;2022-11-24T03:08:01;39.42;;;5.72;;
43678;SDS011;29279;50.858;4.392;2022-11-24T03:10:27;43.83;;;5.32;;
43678;SDS011;29279;50.858;4.392;2022-11-24T03:12:53;38.00;;;5.97;;
43678;SDS011;29279;50.858;4.392;2022-11-24T03:15:19;46.97;;;5.88;;
43678;SDS011;29279;50.858;4.392;2022-11-24T03:17:45;45.03;;;6.82;;
43678;SDS011;29279;50.858;4.392;2022-11-24T03:20:11;38.28;;;6.10;;
43678;SDS011;29279;50.858;4.392;2022-11-24T03:22:37;27.73;;;4.70;;
43678;SDS011;29279;50.858;4.392;2022-11-24T03:25:03;33.95;;;5.13;;
43678;SDS011;29279;50.858;4.392;2022-11-24T03:27:29;26.35;;;4.13;;
43678;SDS011;29279;50.858;4.392;2022-11-24T03:29:55;22.88;;;4.85;;
43678;SDS011;29279;50.858;4.392;2022-11-24T03:32:21;23.13;;;3.72;;
43678;SDS011;29279;50.858;4.392;2022-11-24T03:34:47;20.40;;;3.33;;
43678;SDS011;29279;50.858;4.392;2022-11-24T03:37:12;22.00;;;3.15;;
43678;SDS011;29279;50.858;4.392;2022-11-24T03:39:38;9.65;;;2.35;;
43678;SDS011;29279;50.858;4.392;2022-11-24T03:42:04;19.48;;;2.50;;
43678;SDS011;29279;50.858;4.392;2022-11-24T03:44:30;10.95;;;2.00;;
43678;SDS011;29279;50.858;4.392;2022-11-24T03:46:55;12.77;;;1.85;;
43678;SDS011;29279;50.858;4.392;2022-11-24T03:49:21;19.92;;;2.33;;
43678;SDS011;29279;50.858;4.392;2022-11-24T03:51:50;12.30;;;2.60;;
43678;SDS011;29279;50.858;4.392;2022-11-24T03:54:16;16.88;;;2.85;;
43678;SDS011;29279;50.858;4.392;2022-11-24T03:56:41;14.20;;;2.75;;
43678;SDS011;29279;50.858;4.392;2022-11-24T03:59:07;13.55;;;2.20;;
43678;SDS011;29279;50.858;4.392;2022-11-24T04:01:33;10.10;;;1.92;;
43678;SDS011;29279;50.858;4.392;2022-11-24T04:03:58;10.88;;;2.15;;
43678;SDS011;29279;50.858;4.392;2022-11-24T04:06:24;11.05;;;1.92;;
43678;SDS011;29279;50.858;4.392;2022-11-24T04:08:50;14.27;;;2.60;;
43678;SDS011;29279;50.858;4.392;2022-11-24T04:11:16;14.30;;;2.85;;
43678;SDS011;29279;50.858;4.392;2022-11-24T04:14:00;12.00;;;2.60;;
43678;SDS011;29279;50.858;4.392;2022-11-24T04:16:25;12.38;;;2.25;;
43678;SDS011;29279;50.858;4.392;2022-11-24T04:18:51;14.02;;;1.85;;
43678;SDS011;29279;50.858;4.392;2022-11-24T04:21:17;17.45;;;2.08;;
43678;SDS011;29279;50.858;4.392;2022-11-24T04:23:43;12.73;;;2.00;;
43678;SDS011;29279;50.858;4.392;2022-11-24T04:26:09;9.20;;;1.60;;
43678;SDS011;29279;50.858;4.392;2022-11-24T04:28:36;9.93;;;1.73;;
43678;SDS011;29279;50.858;4.392;2022-11-24T04:31:03;10.65;;;1.60;;
43678;SDS011;29279;50.858;4.392;2022-11-24T04:33:29;7.15;;;1.42;;
43678;SDS011;29279;50.858;4.392;2022-11-24T04:35:55;8.05;;;1.52;;
43678;SDS011;29279;50.858;4.392;2022-11-24T04:38:21;7.57;;;1.17;;
43678;SDS011;29279;50.858;4.392;2022-11-24T04:40:46;9.82;;;1.63;;
43678;SDS011;29279;50.858;4.392;2022-11-24T04:43:12;7.90;;;1.52;;
43678;SDS011;29279;50.858;4.392;2022-11-24T04:45:38;10.77;;;1.25;;
43678;SDS011;29279;50.858;4.392;2022-11-24T04:48:04;5.93;;;1.30;;
43678;SDS011;29279;50.858;4.392;2022-11-24T04:50:30;11.27;;;1.52;;
43678;SDS011;29279;50.858;4.392;2022-11-24T04:52:56;9.00;;;1.48;;
43678;SDS011;29279;50.858;4.392;2022-11-24T04:55:21;6.75;;;1.25;;
43678;SDS011;29279;50.858;4.392;2022-11-24T04:57:47;7.60;;;1.00;;
43678;SDS011;29279;50.858;4.392;2022-11-24T05:00:13;5.38;;;1.10;;
43678;SDS011;29279;50.858;4.392;2022-11-24T05:02:38;7.13;;;0.90;;
43678;SDS011;29279;50.858;4.392;2022-11-24T05:05:05;6.72;;;1.05;;
43678;SDS011;29279;50.858;4.392;2022-11-24T05:07:31;5.20;;;0.80;;
43678;SDS011;29279;50.858;4.392;2022-11-24T05:09:57;8.32;;;1.50;;
43678;SDS011;29279;50.858;4.392;2022-11-24T05:12:41;7.03;;;1.40;;
43678;SDS011;29279;50.858;4.392;2022-11-24T05:15:07;4.88;;;0.90;;
43678;SDS011;29279;50.858;4.392;2022-11-24T05:17:34;7.93;;;1.05;;
43678;SDS011;29279;50.858;4.392;2022-11-24T05:20:01;6.40;;;1.20;;
43678;SDS011;29279;50.858;4.392;2022-11-24T05:22:29;9.68;;;1.10;;
43678;SDS011;29279;50.858;4.392;2022-11-24T05:24:55;6.90;;;1.27;;
43678;SDS011;29279;50.858;4.392;2022-11-24T05:27:21;8.45;;;1.27;;
43678;SDS011;29279;50.858;4.392;2022-11-24T05:29:47;9.90;;;1.90;;
43678;SDS011;29279;50.858;4.392;2022-11-24T05:32:13;8.07;;;1.83;;
43678;SDS011;29279;50.858;4.392;2022-11-24T05:34:38;12.48;;;1.83;;
43678;SDS011;29279;50.858;4.392;2022-11-24T05:37:04;10.95;;;1.88;;
43678;SDS011;29279;50.858;4.392;2022-11-24T05:39:31;13.52;;;2.35;;
43678;SDS011;29279;50.858;4.392;2022-11-24T05:41:57;9.25;;;1.52;;
43678;SDS011;29279;50.858;4.392;2022-11-24T05:44:23;12.13;;;2.00;;
43678;SDS011;29279;50.858;4.392;2022-11-24T05:46:49;6.47;;;1.85;;
43678;SDS011;29279;50.858;4.392;2022-11-24T05:49:15;13.75;;;2.72;;
43678;SDS011;29279;50.858;4.392;2022-11-24T05:51:41;15.75;;;2.60;;
43678;SDS011;29279;50.858;4.392;2022-11-24T05:54:06;15.10;;;3.15;;
43678;SDS011;29279;50.858;4.392;2022-11-24T05:56:32;14.82;;;2.40;;
43678;SDS011;29279;50.858;4.392;2022-11-24T05:58:58;16.52;;;2.72;;
43678;SDS011;29279;50.858;4.392;2022-11-24T06:01:23;15.85;;;2.67;;
43678;SDS011;29279;50.858;4.392;2022-11-24T06:03:49;27.13;;;3.22;;
43678;SDS011;29279;50.858;4.392;2022-11-24T06:06:15;11.68;;;2.08;;
43678;SDS011;29279;50.858;4.392;2022-11-24T06:08:40;16.38;;;2.88;;
43678;SDS011;29279;50.858;4.392;2022-11-24T06:11:06;16.73;;;3.45;;
43678;SDS011;29279;50.858;4.392;2022-11-24T06:13:42;22.73;;;3.58;;
43678;SDS011;29279;50.858;4.392;2022-11-24T06:16:09;23.17;;;3.45;;
43678;SDS011;29279;50.858;4.392;2022-11-24T06:18:35;18.60;;;2.72;;
43678;SDS011;29279;50.858;4.392;2022-11-24T06:21:01;21.60;;;2.90;;
43678;SDS011;29279;50.858;4.392;2022-11-24T06:23:27;18.95;;;2.90;;
43678;SDS011;29279;50.858;4.392;2022-11-24T06:25:53;22.92;;;3.22;;
43678;SDS011;29279;50.858;4.392;2022-11-24T06:28:21;19.95;;;4.20;;
43678;SDS011;29279;50.858;4.392;2022-11-24T06:30:46;20.27;;;4.18;;
43678;SDS011;29279;50.858;4.392;2022-11-24T06:33:12;18.85;;;3.85;;
43678;SDS011;29279;50.858;4.392;2022-11-24T06:35:38;27.45;;;3.83;;
43678;SDS011;29279;50.858;4.392;2022-11-24T06:38:04;22.77;;;3.83;;
43678;SDS011;29279;50.858;4.392;2022-11-24T06:40:29;19.00;;;3.30;;
43678;SDS011;29279;50.858;4.392;2022-11-24T06:42:55;18.85;;;3.50;;
43678;SDS011;29279;50.858;4.392;2022-11-24T06:45:21;20.08;;;3.72;;
43678;SDS011;29279;50.858;4.392;2022-11-24T06:47:47;31.52;;;3.55;;
43678;SDS011;29279;50.858;4.392;2022-11-24T06:50:13;21.15;;;3.50;;
43678;SDS011;29279;50.858;4.392;2022-11-24T06:52:38;27.50;;;3.45;;
43678;SDS011;29279;50.858;4.392;2022-11-24T06:55:04;18.90;;;3.63;;
43678;SDS011;29279;50.858;4.392;2022-11-24T06:57:31;20.58;;;3.10;;
43678;SDS011;29279;50.858;4.392;2022-11-24T06:59:56;24.25;;;4.35;;
43678;SDS011;29279;50.858;4.392;2022-11-24T07:02:22;15.48;;;3.58;;
43678;SDS011;29279;50.858;4.392;2022-11-24T07:04:48;22.60;;;3.70;;
43678;SDS011;29279;50.858;4.392;2022-11-24T07:07:13;35.30;;;5.00;;
43678;SDS011;29279;50.858;4.392;2022-11-24T07:09:39;21.10;;;2.95;;
43678;SDS011;29279;50.858;4.392;2022-11-24T07:12:05;19.48;;;2.85;;
43678;SDS011;29279;50.858;4.392;2022-11-24T07:14:31;14.73;;;3.05;;
43678;SDS011;29279;50.858;4.392;2022-11-24T07:16:57;19.98;;;3.47;;
43678;SDS011;29279;50.858;4.392;2022-11-24T07:19:22;20.65;;;2.83;;
43678;SDS011;29279;50.858;4.392;2022-11-24T07:21:48;21.40;;;2.92;;
43678;SDS011;29279;50.858;4.392;2022-11-24T07:24:13;25.88;;;3.60;;
43678;SDS011;29279;50.858;4.392;2022-11-24T07:26:39;17.67;;;3.03;;
43678;SDS011;29279;50.858;4.392;2022-11-24T07:29:05;13.77;;;2.20;;
43678;SDS011;29279;50.858;4.392;2022-11-24T07:31:31;12.48;;;2.75;;
43678;SDS011;29279;50.858;4.392;2022-11-24T07:33:56;25.38;;;4.25;;
43678;SDS011;29279;50.858;4.392;2022-11-24T07:36:22;22.40;;;3.58;;
43678;SDS011;29279;50.858;4.392;2022-11-24T07:38:49;21.13;;;3.08;;
43678;SDS011;29279;50.858;4.392;2022-11-24T07:41:15;17.33;;;3.22;;
43678;SDS011;29279;50.858;4.392;2022-11-24T07:43:43;14.07;;;2.78;;
43678;SDS011;29279;50.858;4.392;2022-11-24T07:46:11;26.00;;;3.65;;
43678;SDS011;29279;50.858;4.392;2022-11-24T07:48:38;16.63;;;2.65;;
43678;SDS011;29279;50.858;4.392;2022-11-24T07:51:04;17.08;;;2.53;;
43678;SDS011;29279;50.858;4.392;2022-11-24T07:53:30;13.57;;;2.53;;
43678;SDS011;29279;50.858;4.392;2022-11-24T07:55:57;14.45;;;2.65;;
43678;SDS011;29279;50.858;4.392;2022-11-24T07:58:25;17.02;;;3.30;;
43678;SDS011;29279;50.858;4.392;2022-11-24T08:00:55;21.17;;;3.58;;
43678;SDS011;29279;50.858;4.392;2022-11-24T08:03:22;15.48;;;2.28;;
43678;SDS011;29279;50.858;4.392;2022-11-24T08:05:58;14.45;;;2.63;;
43678;SDS011;29279;50.858;4.392;2022-11-24T08:08:24;16.67;;;2.88;;
43678;SDS011;29279;50.858;4.392;2022-11-24T08:10:50;13.57;;;2.28;;
43678;SDS011;29279;50.858;4.392;2022-11-24T08:13:17;19.92;;;2.90;;
43678;SDS011;29279;50.858;4.392;2022-11-24T08:15:43;10.75;;;2.75;;
43678;SDS011;29279;50.858;4.392;2022-11-24T08:18:09;17.13;;;2.88;;
43678;SDS011;29279;50.858;4.392;2022-11-24T08:20:36;14.13;;;2.50;;
43678;SDS011;29279;50.858;4.392;2022-11-24T08:23:02;16.00;;;2.50;;
43678;SDS011;29279;50.858;4.392;2022-11-24T08:25:28;25.13;;;4.20;;
43678;SDS011;29279;50.858;4.392;2022-11-24T08:27:57;19.45;;;2.88;;
43678;SDS011;29279;50.858;4.392;2022-11-24T08:30:23;15.60;;;2.63;;
43678;SDS011;29279;50.858;4.392;2022-11-24T08:32:49;13.07;;;2.70;;
43678;SDS011;29279;50.858;4.392;2022-11-24T08:35:14;18.88;;;3.55;;
43678;SDS011;29279;50.858;4.392;2022-11-24T08:37:40;13.25;;;2.20;;
43678;SDS011;29279;50.858;4.392;2022-11-24T08:40:06;17.30;;;2.80;;
43678;SDS011;29279;50.858;4.392;2022-11-24T08:42:32;12.07;;;2.55;;
43678;SDS011;29279;50.858;4.392;2022-11-24T08:44:57;12.70;;;2.58;;
43678;SDS011;29279;50.858;4.392;2022-11-24T08:47:23;20.65;;;3.28;;
43678;SDS011;29279;50.858;4.392;2022-11-24T08:49:49;11.52;;;2.40;;
43678;SDS011;29279;50.858;4.392;2022-11-24T08:52:15;20.75;;;3.08;;
43678;SDS011;29279;50.858;4.392;2022-11-24T08:54:40;19.63;;;3.83;;
43678;SDS011;29279;50.858;4.392;2022-11-24T08:57:09;17.83;;;3.08;;
43678;SDS011;29279;50.858;4.392;2022-11-24T08:59:35;18.98;;;3.58;;
43678;SDS011;29279;50.858;4.392;2022-11-24T09:02:01;20.60;;;3.70;;
43678;SDS011;29279;50.858;4.392;2022-11-24T09:04:26;18.38;;;3.25;;
43678;SDS011;29279;50.858;4.392;2022-11-24T09:06:52;16.33;;;4.05;;
43678;SDS011;29279;50.858;4.392;2022-11-24T09:09:18;19.65;;;4.38;;
43678;SDS011;29279;50.858;4.392;2022-11-24T09:11:43;18.83;;;4.18;;
43678;SDS011;29279;50.858;4.392;2022-11-24T09:14:09;14.93;;;4.13;;
43678;SDS011;29279;50.858;4.392;2022-11-24T09:16:35;18.08;;;3.88;;
43678;SDS011;29279;50.858;4.392;2022-11-24T09:19:01;15.75;;;3.75;;
43678;SDS011;29279;50.858;4.392;2022-11-24T09:21:29;21.17;;;4.68;;
43678;SDS011;29279;50.858;4.392;2022-11-24T09:23:58;18.33;;;3.95;;
43678;SDS011;29279;50.858;4.392;2022-11-24T09:26:24;18.10;;;3.55;;
43678;SDS011;29279;50.858;4.392;2022-11-24T09:28:52;23.30;;;4.50;;
43678;SDS011;29279;50.858;4.392;2022-11-24T09:31:19;18.77;;;3.50;;
43678;SDS011;29279;50.858;4.392;2022-11-24T09:33:47;15.65;;;3.13;;
43678;SDS011;29279;50.858;4.392;2022-11-24T09:36:13;16.98;;;3.72;;
43678;SDS011;29279;50.858;4.392;2022-11-24T09:38:39;16.75;;;4.07;;
43678;SDS011;29279;50.858;4.392;2022-11-24T09:52:12;27.23;;;5.78;;
43678;SDS011;29279;50.858;4.392;2022-11-24T09:54:45;16.70;;;4.13;;
43678;SDS011;29279;50.858;4.392;2022-11-24T09:57:19;25.02;;;4.50;;
43678;SDS011;29279;50.858;4.392;2022-11-24T09:59:47;20.25;;;4.78;;
43678;SDS011;29279;50.858;4.392;2022-11-24T10:02:13;22.95;;;4.07;;
43678;SDS011;29279;50.858;4.392;2022-11-24T10:04:41;39.00;;;8.50;;
43678;SDS011;29279;50.858;4.392;2022-11-24T10:23:02;20.20;;;3.72;;
43678;SDS011;29279;50.858;4.392;2022-11-24T10:25:47;19.58;;;4.57;;
43678;SDS011;29279;50.858;4.392;2022-11-24T10:28:21;17.42;;;3.50;;
43678;SDS011;29279;50.858;4.392;2022-11-24T10:30:51;18.60;;;3.45;;
43678;SDS011;29279;50.858;4.392;2022-11-24T10:33:22;17.92;;;4.25;;
43678;SDS011;29279;50.858;4.392;2022-11-24T10:35:54;23.80;;;4.40;;
43678;SDS011;29279;50.858;4.392;2022-11-24T10:38:43;19.52;;;4.40;;
43678;SDS011;29279;50.858;4.392;2022-11-24T10:41:19;27.38;;;4.50;;
43678;SDS011;29279;50.858;4.392;2022-11-24T10:44:10;18.02;;;4.13;;
43678;SDS011;29279;50.858;4.392;2022-11-24T10:46:39;18.23;;;4.38;;
43678;SDS011;29279;50.858;4.392;2022-11-24T10:49:06;18.08;;;3.72;;
43678;SDS011;29279;50.858;4.392;2022-11-24T10:51:40;16.38;;;4.10;;
43678;SDS011;29279;50.858;4.392;2022-11-24T10:54:21;21.48;;;4.47;;
43678;SDS011;29279;50.858;4.392;2022-11-24T10:56:51;20.63;;;4.82;;
43678;SDS011;29279;50.858;4.392;2022-11-24T10:59:27;21.75;;;4.45;;
43678;SDS011;29279;50.858;4.392;2022-11-24T11:01:56;21.50;;;4.32;;
43678;SDS011;29279;50.858;4.392;2022-11-24T11:04:32;27.00;;;4.35;;
43678;SDS011;29279;50.858;4.392;2022-11-24T11:07:06;14.10;;;3.72;;
43678;SDS011;29279;50.858;4.392;2022-11-24T11:09:32;23.73;;;5.00;;
43678;SDS011;29279;50.858;4.392;2022-11-24T11:11:57;20.98;;;3.90;;
43678;SDS011;29279;50.858;4.392;2022-11-24T11:14:43;21.05;;;3.95;;
43678;SDS011;29279;50.858;4.392;2022-11-24T11:19:55;19.15;;;4.70;;
43678;SDS011;29279;50.858;4.392;2022-11-24T11:22:29;15.40;;;3.28;;
43678;SDS011;29279;50.858;4.392;2022-11-24T11:27:34;19.17;;;4.03;;
43678;SDS011;29279;50.858;4.392;2022-11-24T11:32:52;16.52;;;3.78;;
43678;SDS011;29279;50.858;4.392;2022-11-24T11:35:24;22.83;;;4.85;;
43678;SDS011;29279;50.858;4.392;2022-11-24T11:37:52;27.15;;;4.70;;
43678;SDS011;29279;50.858;4.392;2022-11-24T11:40:26;23.08;;;4.53;;
43678;SDS011;29279;50.858;4.392;2022-11-24T11:45:34;20.52;;;4.35;;
43678;SDS011;29279;50.858;4.392;2022-11-24T11:56:24;19.83;;;3.85;;
43678;SDS011;29279;50.858;4.392;2022-11-24T12:01:10;19.38;;;3.85;;
43678;SDS011;29279;50.858;4.392;2022-11-24T12:04:00;24.25;;;4.72;;
43678;SDS011;29279;50.858;4.392;2022-11-24T12:09:16;24.05;;;4.05;;
43678;SDS011;29279;50.858;4.392;2022-11-24T12:12:03;18.95;;;4.32;;
43678;SDS011;29279;50.858;4.392;2022-11-24T12:14:52;15.95;;;3.33;;
43678;SDS011;29279;50.858;4.392;2022-11-24T12:22:57;29.10;;;4.30;;
43678;SDS011;29279;50.858;4.392;2022-11-24T12:25:28;22.15;;;4.57;;
43678;SDS011;29279;50.858;4.392;2022-11-24T12:28:13;32.63;;;5.20;;
43678;SDS011;29279;50.858;4.392;2022-11-24T12:33:31;24.17;;;3.90;;
43678;SDS011;29279;50.858;4.392;2022-11-24T12:44:47;23.55;;;4.68;;
43678;SDS011;29279;50.858;4.392;2022-11-24T12:47:29;23.80;;;4.53;;
43678;SDS011;29279;50.858;4.392;2022-11-24T12:53:04;20.83;;;4.15;;
43678;SDS011;29279;50.858;4.392;2022-11-24T12:55:34;17.92;;;3.83;;
43678;SDS011;29279;50.858;4.392;2022-11-24T13:06:18;20.63;;;4.20;;
43678;SDS011;29279;50.858;4.392;2022-11-24T13:08:46;23.50;;;4.32;;
43678;SDS011;29279;50.858;4.392;2022-11-24T13:16:50;24.63;;;3.63;;
43678;SDS011;29279;50.858;4.392;2022-11-24T13:19:28;27.90;;;4.78;;
43678;SDS011;29279;50.858;4.392;2022-11-24T13:24:36;17.83;;;4.40;;
43678;SDS011;29279;50.858;4.392;2022-11-24T13:39:48;22.58;;;4.07;;
43678;SDS011;29279;50.858;4.392;2022-11-24T13:42:16;24.60;;;4.32;;
43678;SDS011;29279;50.858;4.392;2022-11-24T13:44:43;21.77;;;4.40;;
43678;SDS011;29279;50.858;4.392;2022-11-24T13:49:56;24.13;;;4.18;;
43678;SDS011;29279;50.858;4.392;2022-11-24T13:55:01;21.83;;;3.72;;
43678;SDS011;29279;50.858;4.392;2022-11-24T13:57:51;23.05;;;5.00;;
43678;SDS011;29279;50.858;4.392;2022-11-24T14:00:29;18.88;;;3.78;;
43678;SDS011;29279;50.858;4.392;2022-11-24T14:02:58;18.95;;;3.90;;
43678;SDS011;29279;50.858;4.392;2022-11-24T14:06:12;24.27;;;4.70;;
43678;SDS011;29279;50.858;4.392;2022-11-24T14:08:19;28.08;;;4.78;;
43678;SDS011;29279;50.858;4.392;2022-11-24T14:11:00;21.65;;;3.88;;
43678;SDS011;29279;50.858;4.392;2022-11-24T14:13:29;36.88;;;6.05;;
43678;SDS011;29279;50.858;4.392;2022-11-24T14:16:00;24.27;;;4.40;;
43678;SDS011;29279;50.858;4.392;2022-11-24T14:18:32;26.00;;;3.95;;
43678;SDS011;29279;50.858;4.392;2022-11-24T14:21:00;22.42;;;4.25;;
43678;SDS011;29279;50.858;4.392;2022-11-24T14:23:46;32.08;;;4.45;;
43678;SDS011;29279;50.858;4.392;2022-11-24T14:26:21;28.58;;;4.72;;
43678;SDS011;29279;50.858;4.392;2022-11-24T14:28:53;30.58;;;4.40;;
43678;SDS011;29279;50.858;4.392;2022-11-24T14:31:39;26.83;;;4.50;;
43678;SDS011;29279;50.858;4.392;2022-11-24T14:36:42;24.10;;;4.63;;
43678;SDS011;29279;50.858;4.392;2022-11-24T14:39:11;24.15;;;4.25;;
43678;SDS011;29279;50.858;4.392;2022-11-24T14:41:39;25.45;;;4.15;;
43678;SDS011;29279;50.858;4.392;2022-11-24T14:47:04;22.02;;;3.85;;
43678;SDS011;29279;50.858;4.392;2022-11-24T14:49:38;19.45;;;3.70;;
43678;SDS011;29279;50.858;4.392;2022-11-24T14:52:10;23.15;;;4.03;;
43678;SDS011;29279;50.858;4.392;2022-11-24T14:54:45;24.58;;;3.90;;
43678;SDS011;29279;50.858;4.392;2022-11-24T15:00:23;27.10;;;4.15;;
43678;SDS011;29279;50.858;4.392;2022-11-24T15:02:55;22.33;;;4.22;;
43678;SDS011;29279;50.858;4.392;2022-11-24T15:08:15;21.13;;;4.50;;
43678;SDS011;29279;50.858;4.392;2022-11-24T15:10:40;26.05;;;3.88;;
43678;SDS011;29279;50.858;4.392;2022-11-24T15:13:14;22.48;;;3.88;;
43678;SDS011;29279;50.858;4.392;2022-11-24T15:15:53;19.25;;;3.13;;
43678;SDS011;29279;50.858;4.392;2022-11-24T15:18:27;22.90;;;3.67;;
43678;SDS011;29279;50.858;4.392;2022-11-24T15:21:04;29.52;;;3.63;;
43678;SDS011;29279;50.858;4.392;2022-11-24T15:23:31;26.35;;;5.28;;
43678;SDS011;29279;50.858;4.392;2022-11-24T15:28:26;25.17;;;4.35;;
43678;SDS011;29279;50.858;4.392;2022-11-24T15:31:00;26.90;;;4.78;;
43678;SDS011;29279;50.858;4.392;2022-11-24T15:33:30;24.83;;;3.78;;
43678;SDS011;29279;50.858;4.392;2022-11-24T15:35:56;31.25;;;4.50;;
43678;SDS011;29279;50.858;4.392;2022-11-24T15:38:23;19.90;;;3.38;;
43678;SDS011;29279;50.858;4.392;2022-11-24T15:40:52;31.35;;;4.57;;
43678;SDS011;29279;50.858;4.392;2022-11-24T15:46:14;32.40;;;4.38;;
43678;SDS011;29279;50.858;4.392;2022-11-24T15:48:40;22.60;;;3.67;;
43678;SDS011;29279;50.858;4.392;2022-11-24T15:51:06;32.00;;;4.72;;
43678;SDS011;29279;50.858;4.392;2022-11-24T15:53:37;22.70;;;3.92;;
43678;SDS011;29279;50.858;4.392;2022-11-24T15:56:06;33.28;;;3.53;;
43678;SDS011;29279;50.858;4.392;2022-11-24T15:58:38;26.17;;;4.37;;
43678;SDS011;29279;50.858;4.392;2022-11-24T16:01:03;24.40;;;4.32;;
43678;SDS011;29279;50.858;4.392;2022-11-24T16:03:29;30.65;;;5.25;;
43678;SDS011;29279;50.858;4.392;2022-11-24T16:05:55;30.10;;;4.80;;
43678;SDS011;29279;50.858;4.392;2022-11-24T16:08:21;23.30;;;3.92;;
43678;SDS011;29279;50.858;4.392;2022-11-24T16:10:47;20.88;;;4.35;;
43678;SDS011;29279;50.858;4.392;2022-11-24T16:13:13;21.10;;;4.97;;
43678;SDS011;29279;50.858;4.392;2022-11-24T16:15:38;27.13;;;4.78;;
43678;SDS011;29279;50.858;4.392;2022-11-24T16:18:04;26.95;;;4.53;;
43678;SDS011;29279;50.858;4.392;2022-11-24T16:20:33;29.55;;;5.20;;
43678;SDS011;29279;50.858;4.392;2022-11-24T16:23:00;25.73;;;5.10;;
43678;SDS011;29279;50.858;4.392;2022-11-24T16:25:29;24.88;;;4.65;;
43678;SDS011;29279;50.858;4.392;2022-11-24T16:27:55;28.55;;;4.45;;
43678;SDS011;29279;50.858;4.392;2022-11-24T16:30:21;21.38;;;4.45;;
43678;SDS011;29279;50.858;4.392;2022-11-24T16:32:47;20.05;;;3.60;;
43678;SDS011;29279;50.858;4.392;2022-11-24T16:35:13;32.28;;;5.32;;
43678;SDS011;29279;50.858;4.392;2022-11-24T16:37:38;27.08;;;4.68;;
43678;SDS011;29279;50.858;4.392;2022-11-24T16:40:04;25.52;;;5.00;;
43678;SDS011;29279;50.858;4.392;2022-11-24T16:42:30;27.58;;;5.13;;
43678;SDS011;29279;50.858;4.392;2022-11-24T16:44:56;29.02;;;4.68;;
43678;SDS011;29279;50.858;4.392;2022-11-24T16:47:22;23.02;;;4.85;;
43678;SDS011;29279;50.858;4.392;2022-11-24T16:49:48;28.88;;;5.57;;
43678;SDS011;29279;50.858;4.392;2022-11-24T16:52:14;22.63;;;4.35;;
43678;SDS011;29279;50.858;4.392;2022-11-24T16:54:40;30.25;;;5.20;;
43678;SDS011;29279;50.858;4.392;2022-11-24T16:57:05;29.88;;;4.68;;
43678;SDS011;29279;50.858;4.392;2022-11-24T16:59:31;30.13;;;5.82;;